This is the latest recevied weather packets stored in our database for station/object NU3S-7. If no packets are shown the sender has not sent any weather packets the latest 10 day(s).
| Time | Temp. | Humidity | Pressure | Rain* | Wind** | Luminosity | Snow |
|---|---|---|---|---|---|---|---|
| 1777871670 | 9.44° C | 76% | 1013.2 hPa | 0 mm | - | - | - |
| 1777871070 | 8.89° C | 77% | 1013.2 hPa | 0 mm | - | - | - |
| 1777870504 | 8.89° C | 79% | 1013.2 hPa | 0 mm | - | - | - |
| 1777870471 | 8.89° C | 79% | 1013.2 hPa | 0 mm | - | - | - |
| 1777869869 | 8.33° C | 82% | 1013.3 hPa | 0 mm | - | - | - |
| 1777868668 | 6.67° C | 87% | 1013.4 hPa | 0 mm | - | - | - |
| 1777868068 | 6.67° C | 85% | 1013.4 hPa | 0 mm | - | - | - |
| 1777866866 | 7.22° C | 82% | 1013.3 hPa | 0 mm | - | - | - |
| 1777866265 | 7.22° C | 82% | 1013.2 hPa | 0 mm | - | - | - |
| 1777865665 | 7.22° C | 81% | 1013.1 hPa | 0 mm | - | - | - |
| 1777863864 | 8.33° C | 78% | 1013.2 hPa | 0 mm | - | - | - |
| 1777862663 | 8.33° C | 76% | 1013.4 hPa | 0 mm | - | - | - |
| 1777862062 | 8.89° C | 75% | 1013.5 hPa | 0 mm | - | - | - |
| 1777861500 | 9.44° C | 74% | 1013.5 hPa | 0 mm | - | - | - |
| 1777861462 | 9.44° C | 74% | 1013.5 hPa | 0 mm | - | - | - |
| 1777860860 | 9.44° C | 73% | 1013.5 hPa | 0 mm | - | - | - |
| 1777860260 | 10° C | 71% | 1013.6 hPa | 0 mm | - | - | - |
| 1777859657 | 10° C | 69% | 1013.5 hPa | 0 mm | - | - | - |
| 1777859057 | 10.56° C | 69% | 1013.4 hPa | 0 mm | - | - | - |
| 1777857256 | 11.11° C | 66% | 1013.3 hPa | 0 mm | - | - | - |
| 1777856054 | 11.67° C | 64% | 1013.2 hPa | 0 mm | - | - | - |
| 1777855452 | 12.22° C | 63% | 1013.2 hPa | 0 mm | - | - | - |
| 1777854852 | 12.22° C | 63% | 1013.4 hPa | 0 mm | - | - | - |
| 1777854251 | 12.78° C | 62% | 1013.4 hPa | 0 mm | - | - | - |
| 1777853649 | 12.78° C | 61% | 1013.4 hPa | 0 mm | - | - | - |
* Rain since midnight (hover to see other rain measurements)
** Current wind speed in m/s (hover to see current wind gust speed)